createdAt,value
2022-07-25T00:00:12.913Z,6.88
2022-07-25T00:03:55.829Z,6.88
2022-07-25T00:07:40.529Z,7.45
2022-07-25T00:11:23.452Z,7.28
2022-07-25T00:15:10.318Z,7.45
2022-07-25T00:18:52.880Z,6.50
2022-07-25T00:22:35.656Z,7.00
2022-07-25T00:26:19.716Z,7.07
2022-07-25T00:30:02.351Z,7.20
2022-07-25T00:33:45.192Z,6.53
2022-07-25T00:37:28.077Z,7.47
2022-07-25T00:41:10.576Z,7.65
2022-07-25T00:44:54.508Z,7.47
2022-07-25T00:48:37.057Z,7.55
2022-07-25T00:52:19.507Z,7.00
2022-07-25T00:56:02.348Z,7.40
2022-07-25T01:03:28.997Z,7.15
2022-07-25T01:07:11.583Z,7.60
2022-07-25T01:10:54.258Z,7.78
2022-07-25T01:14:36.829Z,7.32
2022-07-25T01:18:19.605Z,7.63
2022-07-25T01:22:03.712Z,7.32
2022-07-25T01:25:46.321Z,7.30
2022-07-25T01:29:29.005Z,7.20
2022-07-25T01:33:15.830Z,7.47
2022-07-25T01:36:58.716Z,8.10
2022-07-25T01:40:43.471Z,7.60
2022-07-25T01:44:25.887Z,7.22
2022-07-25T01:48:09.114Z,7.22
2022-07-25T01:51:51.889Z,6.97
2022-07-25T01:55:34.540Z,8.15
2022-07-25T02:07:00.454Z,7.07
2022-07-25T02:10:43.256Z,7.07
2022-07-25T02:18:10.228Z,6.57
2022-07-25T02:21:52.826Z,6.55
2022-07-25T02:25:35.951Z,6.43
2022-07-25T02:29:18.752Z,7.00
2022-07-25T02:33:06.163Z,6.72
2022-07-25T02:36:48.900Z,6.85
2022-07-25T02:40:31.594Z,7.63
2022-07-25T02:44:14.272Z,7.32
2022-07-25T02:47:57.030Z,6.78
2022-07-25T02:51:41.085Z,7.20
2022-07-25T02:55:24.180Z,7.30
2022-07-25T03:02:49.419Z,7.53
2022-07-25T03:06:32.060Z,7.78
2022-07-25T03:10:16.519Z,6.82
2022-07-25T03:13:59.249Z,7.38
2022-07-25T03:17:43.133Z,7.43
2022-07-25T03:21:25.793Z,7.25
2022-07-25T03:25:15.580Z,8.00
2022-07-25T03:29:05.796Z,7.45
2022-07-25T03:32:48.813Z,7.60
2022-07-25T03:36:31.488Z,7.53
2022-07-25T03:40:16.031Z,8.13
2022-07-25T03:43:58.649Z,7.60
2022-07-25T03:47:42.877Z,7.60
2022-07-25T03:51:25.251Z,7.15
2022-07-25T03:55:08.880Z,7.43
2022-07-25T03:58:52.245Z,6.97
2022-07-25T04:02:34.936Z,7.20
2022-07-25T04:06:18.773Z,6.68
2022-07-25T04:10:01.309Z,7.32
2022-07-25T04:13:44.301Z,7.25
2022-07-25T04:17:26.832Z,7.47
2022-07-25T04:21:10.023Z,6.43
2022-07-25T04:24:54.124Z,6.90
2022-07-25T04:28:36.760Z,6.35
2022-07-25T04:32:23.334Z,6.53
2022-07-25T04:36:06.998Z,7.05
2022-07-25T04:39:50.397Z,6.90
2022-07-25T04:43:34.497Z,6.85
2022-07-25T04:47:17.222Z,7.05
2022-07-25T04:50:59.911Z,7.22
2022-07-25T04:54:42.465Z,7.10
2022-07-25T04:58:25.196Z,6.40
2022-07-25T05:02:09.432Z,7.30
2022-07-25T05:05:51.868Z,6.57
2022-07-25T05:09:34.721Z,6.45
2022-07-25T05:13:17.490Z,6.72
2022-07-25T05:17:01.137Z,6.88
2022-07-25T05:20:45.429Z,6.72
2022-07-25T05:24:27.970Z,6.93
2022-07-25T05:28:10.482Z,6.95
2022-07-25T05:35:35.574Z,6.63
2022-07-25T05:39:19.522Z,5.97
2022-07-25T05:43:03.498Z,6.75
2022-07-25T05:46:46.396Z,6.13
2022-07-25T05:50:29.228Z,6.65
2022-07-25T05:54:11.985Z,7.43
2022-07-25T06:01:38.600Z,7.35
2022-07-25T06:05:21.165Z,7.45
2022-07-25T06:12:50.706Z,7.93
2022-07-25T06:20:17.402Z,6.93
2022-07-25T06:27:42.987Z,7.47
2022-07-25T06:31:25.597Z,6.72
2022-07-25T06:35:10.294Z,7.72
2022-07-25T06:38:53.069Z,8.27
2022-07-25T06:46:21.248Z,7.32
2022-07-25T06:50:03.957Z,8.00
2022-07-25T06:53:52.323Z,7.45
2022-07-25T06:57:34.878Z,6.78
2022-07-25T07:01:17.691Z,7.25
2022-07-25T07:05:00.476Z,6.78
2022-07-25T07:08:43.233Z,7.30
2022-07-25T07:12:27.393Z,6.63
2022-07-25T07:16:10.762Z,7.22
2022-07-25T07:19:53.861Z,7.38
2022-07-25T07:23:36.749Z,8.02
2022-07-25T07:27:19.298Z,6.57
2022-07-25T07:35:01.377Z,6.53
2022-07-25T07:38:44.635Z,6.45
2022-07-25T07:42:27.060Z,6.28
2022-07-25T07:46:11.392Z,6.75
2022-07-25T07:49:53.894Z,6.40
2022-07-25T07:53:53.970Z,6.20
2022-07-25T07:57:36.684Z,5.50
2022-07-25T08:01:21.028Z,6.22
2022-07-25T08:05:03.914Z,6.20
2022-07-25T08:08:46.248Z,5.38
2022-07-25T08:12:29.143Z,5.93
2022-07-25T08:16:13.752Z,6.47
2022-07-25T08:20:09.404Z,6.63
2022-07-25T08:24:00.131Z,6.15
2022-07-25T08:27:43.331Z,5.82
2022-07-25T08:31:25.957Z,6.60
2022-07-25T08:35:11.570Z,6.22
2022-07-25T08:38:54.397Z,6.40
2022-07-25T08:42:37.109Z,6.32
2022-07-25T08:46:20.113Z,5.60
2022-07-25T08:50:05.212Z,4.53
2022-07-25T08:53:49.501Z,4.68
2022-07-25T08:57:32.197Z,5.53
2022-07-25T09:01:15.532Z,4.95
2022-07-25T09:04:59.723Z,4.90
2022-07-25T09:08:54.326Z,5.40
2022-07-25T09:12:37.269Z,4.45
2022-07-25T09:16:30.605Z,4.38
2022-07-25T09:20:18.309Z,3.95
2022-07-25T09:24:11.796Z,4.82
2022-07-25T09:27:54.788Z,4.18
2022-07-25T09:31:40.577Z,4.82
2022-07-25T09:35:31.615Z,3.80
2022-07-25T09:39:15.921Z,4.80
2022-07-25T09:42:58.293Z,4.03
2022-07-25T09:46:41.046Z,4.60
2022-07-25T09:50:25.338Z,4.53
2022-07-25T09:54:08.437Z,4.28
2022-07-25T09:57:53.529Z,4.45
2022-07-25T10:01:38.750Z,4.93
2022-07-25T10:05:37.752Z,4.18
2022-07-25T10:09:20.622Z,4.32
2022-07-25T10:13:10.562Z,4.65
2022-07-25T10:16:53.638Z,4.22
2022-07-25T10:20:37.198Z,4.43
2022-07-25T10:24:19.756Z,4.00
2022-07-25T10:28:10.058Z,4.15
2022-07-25T10:31:52.904Z,4.03
2022-07-25T10:35:35.575Z,4.22
2022-07-25T10:39:19.964Z,4.28
2022-07-25T10:43:04.607Z,4.30
2022-07-25T10:46:50.308Z,3.42
2022-07-25T10:50:54.437Z,4.18
2022-07-25T10:54:36.733Z,3.55
2022-07-25T10:58:19.716Z,3.47
2022-07-25T11:02:04.923Z,4.18
2022-07-25T11:05:47.874Z,3.70
2022-07-25T11:09:30.884Z,3.85
2022-07-25T11:13:15.908Z,4.10
2022-07-25T11:16:58.407Z,4.60
2022-07-25T11:20:42.581Z,4.00
2022-07-25T11:24:36.745Z,4.22
2022-07-25T11:28:19.336Z,4.25
2022-07-25T11:32:04.095Z,4.28
2022-07-25T11:35:48.337Z,4.35
2022-07-25T11:39:33.138Z,4.53
2022-07-25T11:43:21.624Z,4.20
2022-07-25T11:47:04.803Z,4.10
2022-07-25T11:50:48.843Z,4.05
2022-07-25T11:54:31.185Z,5.07
2022-07-25T11:58:15.848Z,5.00
2022-07-25T12:01:58.790Z,5.03
2022-07-25T12:05:41.994Z,4.70
2022-07-25T12:09:26.019Z,4.82
2022-07-25T12:13:10.176Z,4.32
2022-07-25T12:16:52.557Z,4.22
2022-07-25T12:20:37.170Z,4.68
2022-07-25T12:24:19.768Z,4.90
2022-07-25T12:28:04.157Z,4.18
2022-07-25T12:31:46.952Z,4.47
2022-07-25T12:35:29.722Z,4.60
2022-07-25T12:39:12.488Z,4.57
2022-07-25T12:42:55.409Z,4.80
2022-07-25T12:46:44.593Z,4.60
2022-07-25T12:50:31.389Z,4.45
2022-07-25T12:54:21.723Z,4.30
2022-07-25T12:58:05.136Z,4.88
2022-07-25T13:01:49.746Z,5.40
2022-07-25T13:05:32.609Z,4.63
2022-07-25T13:09:15.014Z,4.65
2022-07-25T13:12:57.443Z,5.57
2022-07-25T13:16:40.416Z,5.13
2022-07-25T13:20:24.621Z,4.95
2022-07-25T13:24:08.372Z,4.55
2022-07-25T13:27:50.960Z,5.00
2022-07-25T13:31:33.985Z,5.03
2022-07-25T13:35:20.406Z,5.00
2022-07-25T13:39:05.640Z,5.53
2022-07-25T13:42:48.342Z,4.82
2022-07-25T13:46:32.014Z,5.18
2022-07-25T13:50:14.825Z,5.38
2022-07-25T13:53:57.658Z,5.07
2022-07-25T13:57:41.702Z,5.88
2022-07-25T14:01:26.686Z,5.32
2022-07-25T14:05:10.698Z,5.30
2022-07-25T14:08:53.134Z,5.15
2022-07-25T14:12:36.385Z,5.05
2022-07-25T14:16:20.727Z,4.88
2022-07-25T14:20:03.700Z,4.88
2022-07-25T14:23:46.096Z,5.28
2022-07-25T14:27:28.907Z,5.05
2022-07-25T14:31:12.176Z,4.95
2022-07-25T14:34:56.052Z,5.18
2022-07-25T14:38:38.525Z,4.85
2022-07-25T14:42:21.728Z,5.13
2022-07-25T14:46:04.492Z,5.55
2022-07-25T14:49:47.043Z,5.25
2022-07-25T14:53:32.245Z,5.32
2022-07-25T14:57:14.708Z,4.95
2022-07-25T15:00:57.503Z,5.22
2022-07-25T15:04:40.186Z,5.47
2022-07-25T15:08:23.250Z,5.03
2022-07-25T15:12:09.540Z,5.07
2022-07-25T15:15:56.048Z,5.05
2022-07-25T15:19:38.942Z,5.07
2022-07-25T15:23:24.546Z,5.15
2022-07-25T15:27:09.533Z,4.53
2022-07-25T15:30:52.108Z,4.60
2022-07-25T15:34:34.913Z,5.07
2022-07-25T15:38:18.838Z,5.13
2022-07-25T15:42:02.521Z,5.07
2022-07-25T15:45:47.667Z,4.82
2022-07-25T15:49:30.288Z,4.57
2022-07-25T15:53:13.514Z,4.88
2022-07-25T15:56:56.325Z,3.92
2022-07-25T16:00:40.611Z,4.10
2022-07-25T16:04:24.806Z,4.22
2022-07-25T16:08:08.154Z,4.35
2022-07-25T16:11:50.998Z,4.57
2022-07-25T16:15:33.833Z,4.35
2022-07-25T16:19:16.676Z,4.28
2022-07-25T16:23:01.431Z,4.28
2022-07-25T16:26:44.890Z,4.80
2022-07-25T16:30:27.969Z,3.65
2022-07-25T16:34:11.113Z,4.53
2022-07-25T16:37:54.129Z,4.97
2022-07-25T16:41:38.101Z,4.32
2022-07-25T16:45:20.643Z,4.10
2022-07-25T16:49:04.034Z,4.25
2022-07-25T16:52:48.337Z,4.05
2022-07-25T16:56:31.200Z,4.57
2022-07-25T17:00:15.897Z,3.60
2022-07-25T17:03:58.880Z,4.15
2022-07-25T17:07:41.461Z,4.43
2022-07-25T17:11:24.134Z,4.03
2022-07-25T17:15:09.102Z,4.10
2022-07-25T17:18:53.157Z,4.90
2022-07-25T17:22:35.665Z,4.65
2022-07-25T17:26:18.436Z,4.50
2022-07-25T17:30:01.351Z,4.70
2022-07-25T17:33:44.354Z,3.97
2022-07-25T17:37:28.665Z,4.55
2022-07-25T17:41:11.509Z,4.93
2022-07-25T17:44:54.407Z,4.78
2022-07-25T17:48:37.408Z,4.22
2022-07-25T17:52:20.118Z,4.55
2022-07-25T17:56:08.349Z,4.50
2022-07-25T17:59:51.077Z,3.70
2022-07-25T18:03:33.792Z,4.10
2022-07-25T18:07:16.675Z,3.42
2022-07-25T18:10:59.567Z,3.17
2022-07-25T18:14:43.519Z,3.50
2022-07-25T18:18:27.654Z,3.40
2022-07-25T18:22:10.082Z,3.28
2022-07-25T18:25:52.712Z,3.40
2022-07-25T18:29:37.260Z,3.22
2022-07-25T18:33:22.066Z,2.80
2022-07-25T18:37:05.975Z,2.63
2022-07-25T18:40:51.566Z,3.28
2022-07-25T18:44:40.386Z,3.05
2022-07-25T18:48:28.865Z,2.97
2022-07-25T18:52:11.731Z,2.85
2022-07-25T18:55:54.584Z,2.25
2022-07-25T18:59:37.600Z,2.47
2022-07-25T19:03:20.148Z,2.28
2022-07-25T19:07:07.143Z,2.38
2022-07-25T19:10:49.846Z,2.15
2022-07-25T19:18:14.630Z,2.90
2022-07-25T19:25:43.680Z,2.10
2022-07-25T19:29:26.578Z,2.10
2022-07-25T19:33:09.158Z,2.50
2022-07-25T19:36:51.914Z,2.70
2022-07-25T19:40:35.355Z,2.08
2022-07-25T19:44:19.301Z,1.98
2022-07-25T19:48:02.043Z,1.98
2022-07-25T19:51:44.949Z,2.55
2022-07-25T19:55:27.888Z,2.00
2022-07-25T20:02:54.586Z,2.22
2022-07-25T20:06:37.497Z,2.20
2022-07-25T20:14:02.601Z,1.70
2022-07-25T20:17:45.672Z,1.92
2022-07-25T20:21:29.973Z,1.70
2022-07-25T20:25:14.335Z,1.75
2022-07-25T20:28:57.149Z,1.95
2022-07-25T20:32:40.209Z,1.63
2022-07-25T20:36:22.634Z,2.45
2022-07-25T20:40:08.821Z,1.83
2022-07-25T20:43:51.315Z,1.75
2022-07-25T20:47:34.092Z,1.67
2022-07-25T20:54:59.086Z,1.88
2022-07-25T20:58:43.175Z,2.17
2022-07-25T21:02:25.806Z,1.85
2022-07-25T21:06:09.029Z,1.80
2022-07-25T21:09:51.632Z,2.42
2022-07-25T21:13:34.379Z,2.13
2022-07-25T21:17:19.074Z,1.67
2022-07-25T21:21:01.582Z,1.95
2022-07-25T21:28:26.728Z,2.08
2022-07-25T21:35:53.938Z,1.88
2022-07-25T21:39:37.316Z,1.70
2022-07-25T21:43:19.866Z,1.85
2022-07-25T21:47:02.868Z,2.00
2022-07-25T21:54:31.137Z,1.75
2022-07-25T21:58:14.013Z,1.52
2022-07-25T22:01:56.938Z,1.42
2022-07-25T22:09:21.752Z,1.95
2022-07-25T22:13:08.278Z,1.80
2022-07-25T22:16:51.220Z,4.20
2022-07-25T22:20:34.230Z,1.88
2022-07-25T22:24:16.868Z,2.00
2022-07-25T22:27:59.362Z,1.83
2022-07-25T22:31:44.406Z,3.15
2022-07-25T22:35:27.001Z,1.40
2022-07-25T22:52:52.755Z,1.35
2022-07-25T22:56:35.281Z,1.15
2022-07-25T23:00:18.674Z,1.15
2022-07-25T23:04:01.399Z,0.90
2022-07-25T23:07:44.244Z,1.33
2022-07-25T23:11:28.205Z,1.45
2022-07-25T23:15:11.475Z,1.30
2022-07-25T23:22:36.448Z,1.35
2022-07-25T23:26:18.912Z,1.00
2022-07-25T23:30:03.413Z,1.00
2022-07-25T23:33:45.826Z,1.10
2022-07-25T23:37:28.634Z,1.13
2022-07-25T23:44:53.737Z,0.98
2022-07-25T23:48:39.436Z,0.98
2022-07-25T23:52:22.311Z,1.20
2022-07-25T23:56:05.541Z,0.65
2022-07-25T23:59:48.191Z,1.00
